Terminal Aerodrome Forecast
Issued by NWS

Home | Current Version | Previous Version | Graphics & Text | Print | Product List | Glossary On
Versions: 1 2 3 4 5 6 7 8 9 10 11 12 13 14 15 16 17 18 19 20 21 22
000
FTUS43 KICT 212145 AAA
TAFRSL
TAF AMD
KRSL 212145Z 2122/2218 15008KT P6SM SCT009 OVC015
     FM220900 20008KT P6SM SCT009=

USA.gov is the U.S. government's official web portal to all federal, state and local government web resources and services.